Date,TemperatureHighF,TemperatureAvgF,TemperatureLowF,DewpointHighF,DewpointAvgF,DewpointLowF,HumidityHigh,HumidityAvg,HumidityLow,PressureMaxIn,PressureMinIn,WindSpeedMaxMPH,WindSpeedAvgMPH,GustSpeedMaxMPH,PrecipitationSumIn
2014-1-1,67.3,48.4,35.6,37.9,31.8,25.3,77,57,24,30.28,30.17,8,1,8,0.00
2014-1-2,71.4,50.4,37.1,37.8,33.7,27.2,82,57,20,30.26,30.11,9,1,10,0.00
2014-1-3,70.3,51.7,39.0,40.6,35.2,29.5,80,57,23,30.14,30.00,10,1,10,0.00
2014-1-4,72.9,51.3,39.2,40.8,33.1,24.8,81,55,18,30.15,30.03,8,0,8,0.00
2014-1-5,72.3,52.1,39.0,30.0,17.3,-5.5,66,33,5,30.27,30.14,14,2,15,0.00
2014-1-6,64.6,49.0,38.8,37.4,27.6,15.5,62,46,16,30.35,30.22,13,1,14,0.00
2014-1-7,67.6,51.8,42.2,45.5,32.6,15.2,82,51,16,30.27,30.16,10,1,10,0.00
2014-1-8,62.0,50.7,41.7,47.5,42.6,34.1,88,75,56,30.28,30.19,11,1,11,0.00
2014-1-9,67.1,54.1,46.2,46.0,42.5,0.0,88,67,40,30.29,30.21,12,2,14,0.00
2014-1-10,67.2,51.8,41.4,42.9,39.6,36.0,83,65,39,30.37,30.22,8,1,8,0.00
2014-1-11,59.5,50.5,44.3,50.9,44.8,38.7,88,81,69,30.31,30.18,15,3,17,0.00
2014-1-12,68.2,54.7,43.1,43.4,35.6,21.5,84,53,20,30.45,30.30,14,2,14,0.00
2014-1-13,69.1,53.9,43.9,38.6,35.4,31.7,72,52,26,30.54,30.38,17,3,18,0.00
2014-1-14,72.2,50.8,37.2,38.3,33.5,24.4,83,57,18,30.54,30.39,16,1,17,0.00
2014-1-15,73.6,54.2,41.7,39.0,31.0,16.2,78,47,12,30.43,30.26,17,3,20,0.00
2014-1-16,74.3,52.0,37.0,36.7,30.2,14.8,81,51,11,30.33,30.18,15,2,15,0.00
2014-1-17,74.2,52.2,36.7,37.1,31.0,18.3,73,51,13,30.29,30.16,14,1,14,0.00
2014-1-18,74.3,51.6,36.3,33.0,27.9,17.1,71,46,12,30.25,30.12,9,1,10,0.00
2014-1-19,73.1,51.5,35.4,34.7,29.0,20.8,73,48,15,30.22,30.11,15,2,16,0.00
2014-1-20,73.8,51.2,36.8,34.3,28.5,16.4,76,48,12,30.29,30.18,12,1,12,0.00
2014-1-21,72.8,50.5,36.1,34.5,28.1,20.6,69,46,15,30.35,30.21,6,0,6,0.00
2014-1-22,73.3,52.1,37.7,36.6,26.6,14.4,65,43,11,30.22,29.98,8,0,8,0.00
2014-1-23,74.8,54.4,39.5,34.5,27.1,9.6,71,42,9,30.09,29.92,19,2,21,0.00
2014-1-24,76.5,57.7,45.5,36.5,27.6,14.0,60,37,10,30.31,30.08,15,2,16,0.00
2014-1-25,75.2,56.6,45.5,35.9,30.2,19.7,60,41,13,30.31,30.15,5,0,6,0.00
2014-1-26,71.3,53.6,44.3,38.2,32.4,25.7,67,47,19,30.20,30.07,5,0,8,0.00
2014-1-27,67.2,53.6,41.9,46.8,40.2,33.0,76,62,35,30.23,30.09,17,1,17,0.00
2014-1-28,73.5,60.2,51.1,54.1,48.1,0.0,84,66,38,30.30,30.20,13,1,14,0.00
2014-1-29,62.8,58.6,55.5,55.3,52.7,47.2,88,81,72,30.23,30.01,12,3,18,0.00
2014-1-30,70.1,57.1,52.0,50.6,46.0,39.2,88,69,37,30.02,29.87,14,3,16,0.11
2014-1-31,69.9,55.6,47.1,44.2,32.3,14.3,78,47,13,30.12,29.96,13,3,14,0.00
2014-2-1,66.4,51.3,39.7,37.5,30.8,20.2,77,49,19,30.21,30.11,13,2,14,0.00
2014-2-2,50.6,45.3,41.9,44.3,39.4,35.0,85,80,69,30.12,29.95,14,2,15,0.40
2014-2-3,64.3,50.0,41.6,42.6,38.8,35.4,85,68,38,30.12,30.03,9,2,10,0.40
2014-2-4,62.9,47.8,38.6,39.6,35.9,33.1,84,65,36,30.23,30.11,9,1,10,0.00
2014-2-5,60.0,47.5,36.1,43.6,36.5,31.2,85,68,40,30.25,30.13,12,2,13,0.18
2014-2-6,53.4,48.7,45.0,47.0,44.4,41.4,88,85,76,30.14,29.98,15,2,16,0.53
2014-2-7,54.4,51.3,49.0,50.6,48.2,45.4,91,89,85,30.15,30.05,14,2,15,1.63
2014-2-8,59.1,55.4,51.8,54.9,52.2,49.1,91,89,85,30.19,30.09,16,2,17,3.67
2014-2-9,60.3,58.0,56.7,55.5,54.1,52.8,89,87,83,30.19,30.08,14,4,16,1.31
2014-2-10,68.4,58.5,52.8,56.2,52.4,48.6,90,81,60,30.33,30.14,11,2,12,0.02
2014-2-11,67.9,55.7,45.1,51.7,47.5,41.6,90,75,50,30.29,30.20,9,1,10,0.00
2014-2-12,65.2,55.3,47.1,51.2,47.6,43.3,91,76,54,30.32,30.21,11,2,12,0.00
2014-2-13,75.5,61.5,52.3,56.2,52.7,48.5,88,75,49,30.25,30.12,10,1,10,0.00
2014-2-14,69.6,60.0,54.9,55.0,51.6,49.1,89,75,53,30.20,30.08,14,3,15,0.00
2014-2-15,62.7,56.5,53.2,52.7,50.8,48.6,89,81,67,30.09,30.01,18,3,20,0.01
2014-2-16,72.4,57.6,47.2,52.5,42.9,34.0,88,63,27,30.26,30.06,13,1,18,0.01
2014-2-17,71.1,55.4,42.9,47.9,40.9,36.9,81,61,32,30.23,30.14,11,2,11,0.00
2014-2-18,70.0,56.7,46.9,49.2,43.6,34.4,81,64,31,30.24,30.11,13,2,14,0.00
2014-2-19,75.5,60.1,51.1,51.2,42.7,26.9,86,58,20,30.25,30.13,15,2,15,0.00
2014-2-20,72.7,58.2,49.6,44.3,37.7,31.6,70,49,24,30.27,30.15,9,2,10,0.00
2014-2-21,77.3,59.5,44.9,44.1,40.1,34.9,81,53,23,30.17,30.01,8,1,9,0.00
2014-2-22,76.8,59.6,45.4,46.1,41.1,33.9,82,55,23,30.06,29.94,9,1,11,0.00
2014-2-23,76.7,59.2,45.2,49.5,43.5,32.3,86,60,22,30.07,29.97,8,1,8,0.00
2014-2-24,79.0,60.1,45.4,49.7,41.9,32.8,83,56,21,30.07,29.94,11,1,11,0.00
2014-2-25,75.4,58.1,46.7,47.8,44.6,37.9,80,63,31,30.02,29.93,18,2,19,0.00
2014-2-26,60.0,56.3,54.3,53.7,50.7,44.5,89,81,68,30.00,29.73,22,5,23,1.21
2014-2-27,69.5,59.4,53.9,52.1,48.7,44.6,86,69,46,29.94,29.63,16,3,17,0.09
2014-2-28,61.6,56.7,52.9,54.0,49.9,44.6,88,78,62,29.64,29.43,12,4,25,1.09
2014-3-1,69.2,58.1,52.7,50.9,47.6,43.5,85,69,44,29.88,29.58,24,6,26,0.16
2014-3-2,61.6,56.3,52.7,54.1,49.8,46.5,86,79,70,30.21,29.87,16,2,21,0.03
2014-3-3,63.3,55.8,50.2,54.3,49.9,46.2,89,81,63,30.21,30.08,10,1,11,0.14
2014-3-4,68.4,59.1,54.3,53.5,51.4,50.0,88,77,56,30.19,30.10,12,2,13,0.04
2014-3-5,70.2,60.8,55.1,56.5,52.9,50.5,87,76,55,30.15,30.01,19,2,20,0.29
2014-3-6,72.2,61.2,51.8,55.2,50.0,45.3,88,69,42,30.22,30.06,14,4,20,0.00
2014-3-7,78.2,61.8,50.3,49.6,44.5,37.1,76,56,28,30.22,30.12,13,2,13,0.00
2014-3-8,77.1,62.7,48.1,51.0,45.8,36.6,82,57,26,30.24,30.14,10,1,10,0.00
2014-3-9,71.2,63.0,56.1,54.1,50.4,46.9,78,65,46,30.23,30.10,12,1,13,0.00
2014-3-10,76.1,63.6,55.4,53.9,43.8,31.4,83,52,26,30.28,30.12,14,3,15,0.02
2014-3-11,77.8,64.3,51.9,38.3,23.9,14.5,54,23,12,30.25,30.05,27,5,31,0.00
2014-3-12,79.0,66.0,56.9,37.0,22.1,13.6,46,20,11,30.17,30.02,21,6,33,0.00
2014-3-13,83.3,64.3,47.6,41.8,32.4,12.0,62,35,8,30.11,29.97,17,2,21,0.00
2014-3-14,79.3,63.2,49.8,52.3,45.1,34.6,79,55,22,30.24,30.05,13,2,14,0.00
2014-3-15,84.4,67.6,52.3,50.0,43.4,31.9,77,46,16,30.36,30.24,10,2,11,0.00
2014-3-16,85.6,65.1,49.6,48.4,41.4,25.7,80,48,13,30.37,30.16,18,2,20,0.00
2014-3-17,76.4,62.1,51.7,48.3,38.6,22.3,79,47,15,30.23,30.01,16,3,20,0.00
2014-3-18,78.3,61.1,45.4,41.7,30.2,11.7,73,38,9,30.04,29.93,16,2,17,0.00
2014-3-19,79.3,61.0,44.7,43.8,35.4,23.7,76,45,15,30.14,30.01,13,1,14,0.00
2014-3-20,82.5,64.5,50.5,45.2,39.0,24.8,76,44,14,30.10,29.93,13,1,14,0.00
2014-3-21,78.9,60.8,48.0,47.6,42.9,36.3,78,54,29,30.02,29.93,15,3,17,0.00
2014-3-22,78.8,61.4,46.1,47.5,43.6,38.4,83,55,30,30.11,29.99,13,2,14,0.00
2014-3-23,81.2,63.1,49.3,46.9,43.0,29.5,80,52,18,30.21,30.08,11,2,12,0.00
2014-3-24,84.2,64.6,48.0,46.6,39.8,23.0,79,46,12,30.19,30.02,12,2,13,0.00
2014-3-25,68.9,57.8,48.4,54.2,44.6,32.3,78,62,47,30.05,29.89,17,4,17,0.02
2014-3-26,68.4,56.8,51.1,54.4,47.6,42.4,88,73,43,30.01,29.85,24,3,24,0.71
2014-3-27,66.3,57.6,51.0,49.2,47.0,43.1,85,69,47,30.19,30.01,12,2,12,0.71
2014-3-28,74.6,61.1,54.5,52.2,49.3,44.4,86,67,41,30.24,30.14,18,2,20,0.00
2014-3-29,62.2,58.0,52.8,54.6,50.1,45.3,86,75,67,30.16,30.03,14,3,16,0.55
2014-3-30,73.1,57.1,45.6,47.5,42.8,38.4,86,62,33,30.16,30.06,20,4,21,0.55
2014-3-31,57.3,50.8,47.0,47.5,44.0,0.0,88,78,55,30.11,29.88,18,2,21,0.72
2014-4-1,59.9,50.3,46.7,48.4,44.5,41.3,90,81,56,30.01,29.88,20,2,21,0.83
2014-4-2,71.3,55.5,45.9,47.0,43.5,38.9,90,67,40,30.14,29.93,12,2,15,0.80
2014-4-3,71.9,56.8,46.1,48.4,43.1,34.8,89,64,30,30.18,30.06,17,3,17,0.00
2014-4-4,66.2,55.3,49.0,51.9,47.6,42.5,90,76,50,30.10,30.04,15,1,17,0.46
2014-4-5,80.0,60.0,46.7,50.6,46.2,41.5,88,64,30,30.20,30.09,14,3,16,0.00
2014-4-6,87.3,67.3,51.3,52.3,45.9,32.5,82,52,17,30.27,30.10,14,2,15,0.00
2014-4-7,85.3,68.7,54.8,55.5,49.1,37.7,84,54,21,30.22,30.08,15,2,16,0.00
2014-4-8,88.1,70.7,55.1,56.7,50.9,44.2,82,54,24,30.16,30.01,11,2,11,0.00
2014-4-9,85.1,67.8,55.6,54.0,49.5,38.0,82,55,23,30.09,29.97,13,3,14,0.00
2014-4-10,87.2,69.7,52.5,51.6,44.4,22.0,80,48,10,30.06,29.88,9,1,10,0.00
2014-4-11,80.0,65.1,55.6,54.1,50.5,45.6,77,61,37,29.96,29.83,17,3,19,0.00
2014-4-12,78.0,62.2,53.3,51.9,47.7,44.7,79,61,38,29.96,29.86,21,7,23,0.00
2014-4-13,85.5,66.3,54.4,53.7,48.6,40.1,80,57,25,30.08,29.96,17,4,21,0.00
2014-4-14,83.6,66.6,52.3,52.3,47.9,40.5,80,55,26,30.15,30.02,15,2,15,0.00
2014-4-15,83.7,66.1,52.7,53.0,48.4,34.9,82,56,21,30.07,29.89,12,3,14,0.00
2014-4-16,85.0,68.8,54.4,51.3,48.0,41.9,81,52,23,29.96,29.81,12,2,15,0.00
2014-4-17,84.8,68.2,55.0,54.5,49.2,42.6,77,53,31,29.88,29.79,18,3,19,0.00
2014-4-18,81.4,66.4,52.7,52.6,46.8,43.1,76,51,32,29.95,29.85,12,3,21,0.00
2014-4-19,79.4,62.9,50.8,52.0,45.9,33.9,80,57,23,30.12,29.94,24,6,24,0.00
2014-4-20,88.1,67.8,50.9,52.4,45.6,34.5,85,51,18,30.19,30.03,20,2,20,0.00
2014-4-21,77.9,63.9,55.8,48.0,40.4,13.4,73,46,10,30.08,29.96,20,3,21,0.00
2014-4-22,78.7,61.7,50.7,49.8,39.4,27.1,80,48,17,30.13,29.97,24,6,24,0.00
2014-4-23,80.0,63.7,51.1,45.3,38.5,29.8,59,42,17,30.18,30.07,20,4,20,0.00
2014-4-24,77.2,63.5,54.7,53.0,48.5,44.5,79,60,37,30.13,29.98,20,4,22,0.00
2014-4-25,60.7,56.1,50.9,53.2,49.6,45.1,87,79,70,30.00,29.80,15,2,20,0.90
2014-4-26,73.9,56.8,45.3,49.2,43.3,38.1,90,64,33,30.09,29.87,21,4,22,0.00
2014-4-27,74.0,59.4,52.8,52.0,46.5,41.5,85,64,39,30.16,30.07,18,3,19,0.01
2014-4-28,82.9,65.0,49.5,50.0,45.7,41.2,82,53,28,30.27,30.14,15,2,15,0.00
2014-4-29,92.0,73.0,54.2,50.4,38.8,18.5,73,37,8,30.24,30.05,17,2,17,0.00
2014-4-30,94.2,75.2,55.5,51.2,37.1,13.8,75,35,6,30.14,30.00,15,2,16,0.00
2014-5-1,97.3,77.1,60.3,50.3,41.1,17.7,65,33,7,30.12,30.03,14,2,14,0.00
2014-5-2,93.0,72.1,57.9,50.8,43.1,26.3,68,40,12,30.09,29.97,17,3,20,0.00
2014-5-3,80.1,64.9,55.8,51.5,47.9,42.3,80,57,30,30.08,29.96,21,6,27,0.00
2014-5-4,80.1,65.5,55.2,50.2,46.8,43.3,72,53,32,30.07,29.99,22,4,22,0.00
2014-5-5,78.3,64.4,55.3,48.6,44.5,39.3,73,51,28,30.06,29.92,20,5,22,0.00
2014-5-6,83.5,66.3,54.0,47.6,40.5,25.1,65,42,14,29.97,29.85,21,5,24,0.00
2014-5-7,80.6,64.2,52.3,47.4,45.2,39.4,76,53,26,30.00,29.88,17,4,18,0.00
2014-5-8,72.7,62.1,53.8,55.2,49.4,42.0,79,64,45,30.09,29.99,17,6,20,0.00
2014-5-9,82.0,66.3,56.1,54.0,48.3,40.8,83,56,26,30.16,30.07,21,5,22,0.00
2014-5-10,82.5,65.8,51.8,47.4,37.8,21.7,70,40,16,30.15,30.01,11,3,16,0.00
2014-5-11,89.6,72.5,57.7,41.1,26.8,3.5,46,23,5,30.14,29.98,16,3,16,0.00
2014-5-12,94.3,75.3,56.2,46.5,33.3,7.4,65,28,4,30.14,30.03,20,2,21,0.00
2014-5-13,96.4,79.0,60.2,44.9,31.8,10.2,55,24,5,30.16,30.06,16,2,17,0.00
2014-5-14,101.6,79.2,61.5,48.9,37.3,15.7,61,30,5,30.16,30.03,15,2,15,0.00
2014-5-16,65.0,63.5,61.9,49.4,47.9,46.4,62,57,52,29.97,29.96,13,6,16,0.00
2014-5-17,83.7,67.1,57.2,50.3,47.4,42.7,74,52,29,29.99,29.90,19,6,23,0.00
2014-5-18,84.4,67.9,57.0,49.2,45.6,41.4,67,47,26,30.00,29.89,21,4,22,0.00
2014-5-19,80.8,66.0,57.7,49.1,45.4,41.2,66,49,27,29.97,29.89,24,6,29,0.00
2014-5-20,83.3,66.8,55.5,50.2,46.8,40.7,74,51,26,30.03,29.94,17,4,19,0.00
2014-5-21,87.8,69.8,56.2,52.9,49.8,44.8,79,53,25,30.00,29.88,18,4,19,0.00
2014-5-22,87.2,69.3,55.8,52.9,50.5,46.8,83,55,26,29.99,29.90,15,5,18,0.00
2014-5-23,89.1,71.2,55.8,54.1,51.0,47.4,79,52,27,30.03,29.86,21,5,24,0.00
2014-5-24,91.2,75.1,62.3,55.1,50.2,47.2,66,44,25,29.98,29.85,16,4,17,0.00
2014-5-25,96.3,75.9,60.6,51.9,46.5,38.7,70,40,15,29.98,29.84,15,4,19,0.00
2014-5-26,96.4,77.2,62.1,49.9,43.3,34.6,52,32,17,30.01,29.90,19,4,24,0.00
2014-5-27,89.1,72.3,58.3,49.3,42.4,33.9,69,38,17,30.03,29.92,20,6,20,0.00
2014-5-28,89.2,72.9,59.7,42.9,29.5,9.8,45,23,5,30.09,29.94,12,3,16,0.00
2014-5-29,92.6,74.4,59.1,46.8,33.3,20.2,56,26,8,29.97,29.86,13,3,16,0.00
2014-5-30,83.0,66.2,55.1,50.5,47.4,43.8,78,54,26,29.96,29.89,19,5,20,0.00
2014-5-31,87.3,68.9,55.2,51.0,46.8,33.5,80,50,16,30.00,29.87,14,4,15,0.00
2014-6-1,93.7,73.2,57.5,52.4,45.0,16.5,73,43,8,29.93,29.76,12,3,16,0.00
2014-6-2,79.4,65.3,56.0,50.8,48.7,45.0,77,57,33,29.93,29.80,22,7,24,0.00
2014-6-3,86.5,68.4,56.2,51.3,48.3,44.4,77,52,25,29.99,29.83,14,6,19,0.00
2014-6-4,95.3,74.0,55.6,52.5,45.9,32.6,81,44,13,29.93,29.77,16,3,18,0.00
2014-6-5,94.3,73.0,58.3,52.1,48.3,40.2,74,46,19,29.86,29.74,20,5,25,0.00
2014-6-6,91.4,70.3,56.8,53.9,50.0,46.4,77,52,22,29.86,29.73,17,5,22,0.00
2014-6-7,95.8,73.8,56.1,52.4,48.8,41.3,81,48,17,29.84,29.71,16,5,18,0.00
2014-6-8,105.5,81.9,59.9,53.9,44.2,25.4,75,36,7,29.83,29.69,12,2,14,0.00
2014-6-9,106.8,84.7,66.0,53.6,44.1,20.7,62,30,5,29.76,29.63,18,3,19,0.00
2014-6-10,95.2,75.6,61.9,55.6,52.0,47.3,71,48,21,29.82,29.68,21,5,25,0.00
2014-6-11,82.5,68.8,58.8,53.2,51.4,48.3,77,56,34,29.92,29.81,24,9,28,0.00
2014-6-12,83.4,68.0,56.4,51.1,48.1,43.6,77,52,28,29.98,29.88,23,7,24,0.00
2014-6-13,90.6,72.9,56.8,50.1,43.8,32.1,73,41,14,30.01,29.90,13,3,17,0.00
2014-6-14,90.8,74.0,58.3,51.5,44.0,30.5,75,40,13,29.95,29.79,14,3,19,0.00
2014-6-15,85.2,68.7,57.7,50.8,48.5,45.2,75,51,28,29.83,29.75,19,6,21,0.00
2014-6-16,82.2,67.0,55.0,50.0,45.0,35.1,74,49,22,29.90,29.79,16,7,22,0.00
2014-6-17,91.0,71.6,54.2,48.9,38.2,5.4,73,37,4,29.98,29.87,18,4,20,0.00
2014-6-18,98.1,77.9,60.4,48.1,33.8,12.7,57,26,6,29.96,29.88,20,3,22,0.00
2014-6-19,94.1,74.4,59.1,52.4,44.7,22.9,73,41,8,30.01,29.90,17,4,17,0.00
2014-6-20,97.7,76.5,60.6,52.8,41.7,13.2,72,37,7,29.99,29.87,20,4,23,0.00
2014-6-21,90.7,72.3,60.0,51.0,47.0,37.4,68,44,18,29.91,29.82,16,5,20,0.00
2014-6-22,90.7,70.8,57.4,53.0,48.4,40.5,77,50,18,29.95,29.85,19,5,21,0.00
2014-6-23,95.9,73.5,57.9,53.0,48.6,38.9,78,47,16,29.95,29.84,17,5,19,0.00
2014-6-24,93.1,76.3,62.6,53.3,47.0,40.1,61,39,17,29.96,29.88,19,5,23,0.00
2014-6-25,84.5,70.2,60.3,56.3,53.5,50.9,75,57,36,29.97,29.91,22,7,25,0.00
2014-6-26,86.0,71.2,61.1,55.6,51.9,46.6,75,54,28,30.00,29.91,18,6,21,0.00
2014-6-27,89.9,72.7,58.6,56.7,53.7,50.3,83,55,28,29.98,29.88,22,6,22,0.00
2014-6-28,93.4,74.1,58.7,54.6,50.8,43.3,81,49,21,29.96,29.84,16,5,18,0.00
2014-6-29,100.9,80.4,61.3,53.9,46.0,35.4,72,36,11,29.95,29.79,13,3,16,0.00
2014-6-30,104.7,83.1,64.4,54.5,44.5,25.6,68,33,7,29.85,29.72,18,3,23,0.00
2014-7-1,87.1,72.1,60.8,55.4,52.0,47.8,76,52,27,29.83,29.75,19,7,22,0.00
2014-7-2,90.9,71.3,58.2,55.2,52.6,49.6,80,55,26,29.89,29.78,16,6,19,0.00
2014-7-3,93.0,73.3,59.5,54.4,52.0,47.4,78,51,22,29.93,29.82,15,5,17,0.00
2014-7-4,93.7,74.0,59.6,55.1,49.7,35.5,80,48,17,29.95,29.85,16,4,20,0.00
2014-7-5,97.3,74.9,57.3,53.0,45.4,22.2,80,44,8,30.06,29.94,13,4,16,0.00
2014-7-6,101.0,77.8,58.3,52.1,41.5,21.6,76,36,7,30.04,29.87,18,3,20,0.00
2014-7-7,92.4,75.6,62.0,54.3,48.9,30.6,69,43,12,29.90,29.78,11,2,13,0.00
2014-7-8,94.7,76.2,63.3,55.2,51.3,40.4,73,46,17,29.91,29.82,15,4,17,0.00
2014-7-9,90.4,72.2,59.5,55.7,53.1,49.6,78,54,27,29.96,29.82,18,6,20,0.00
2014-7-10,87.3,71.2,61.1,55.4,53.3,49.8,79,57,30,29.97,29.85,19,6,22,0.00
2014-7-11,87.5,71.4,61.1,54.3,52.0,48.3,74,53,27,30.06,29.95,19,7,22,0.00
2014-7-12,91.7,72.9,59.0,56.3,52.3,48.9,79,52,26,30.09,29.95,16,5,19,0.00
2014-7-13,101.2,78.2,59.5,54.9,51.2,42.3,80,45,15,30.02,29.82,15,4,17,0.00
2014-7-14,101.3,81.0,64.3,55.9,48.8,34.8,71,39,11,29.91,29.83,20,4,22,0.00
2014-7-15,90.7,76.9,64.0,58.0,55.0,46.5,73,49,30,30.01,29.86,20,6,25,0.00
2014-7-16,87.9,72.9,64.8,57.9,55.2,51.7,72,56,30,30.03,29.92,21,8,25,0.00
2014-7-17,86.6,71.6,61.9,56.3,54.3,51.8,77,57,33,30.03,29.92,20,8,27,0.00
2014-7-18,88.5,72.3,60.9,56.2,53.4,50.3,77,54,30,30.04,29.90,19,7,20,0.00
2014-7-19,95.2,74.2,60.5,55.6,52.8,46.5,78,51,22,29.98,29.86,19,5,21,0.00
2014-7-20,78.8,69.9,62.0,57.1,53.9,51.4,74,58,43,30.00,29.90,21,6,23,0.00
2014-7-21,87.2,73.5,63.5,58.2,55.4,53.7,75,55,33,30.06,29.98,15,6,23,0.00
2014-7-22,88.5,72.9,63.2,57.0,54.7,50.0,77,56,28,30.11,30.02,21,5,24,0.00
2014-7-23,91.1,75.7,63.5,56.8,54.6,51.8,75,51,27,30.16,30.00,18,5,22,0.00
2014-7-24,99.3,80.0,61.9,56.9,48.2,29.6,76,41,9,30.05,29.81,13,2,14,0.00
2014-7-25,105.3,84.8,65.2,54.8,38.9,14.6,65,29,4,29.89,29.80,13,2,17,0.00
2014-7-26,103.5,82.5,65.2,54.4,42.4,13.6,60,30,4,29.95,29.85,13,2,17,0.00
2014-7-27,102.5,80.3,66.9,55.6,47.4,18.2,65,38,5,30.00,29.87,15,4,20,0.00
2014-7-28,95.0,75.2,61.5,54.9,51.6,41.5,73,47,17,30.03,29.94,16,5,18,0.00
2014-7-29,99.3,78.8,62.3,56.0,48.1,33.1,72,41,11,30.06,29.91,16,4,16,0.00
2014-7-30,101.1,78.9,63.4,57.4,50.4,27.3,74,44,8,30.01,29.87,16,4,19,0.00
2014-7-31,101.3,78.6,62.1,56.7,51.1,36.2,75,45,11,29.97,29.81,15,3,20,0.00
2014-8-1,104.8,81.6,64.3,56.2,48.6,29.2,69,39,8,29.90,29.80,17,3,19,0.00
2014-8-2,93.2,73.9,60.4,55.9,53.0,48.6,78,52,23,29.93,29.81,17,5,22,0.00
2014-8-3,87.2,69.6,59.5,56.4,53.6,51.3,82,60,31,30.00,29.87,16,6,18,0.00
2014-8-4,84.4,70.3,61.0,58.2,54.1,51.0,78,59,34,30.00,29.91,14,4,17,0.01
2014-8-5,76.2,69.9,63.8,61.4,58.2,55.1,78,67,53,30.08,29.97,10,2,12,0.00
2014-8-6,95.3,78.6,67.8,62.8,56.9,48.4,80,52,23,30.03,29.90,14,3,17,0.00
2014-8-7,94.1,74.5,62.8,57.9,54.7,49.4,78,54,22,29.98,29.82,19,5,21,0.00
2014-8-8,94.7,74.3,60.7,56.4,52.7,46.9,80,52,21,29.94,29.80,16,5,19,0.00
2014-8-9,87.5,70.6,60.6,54.5,52.6,49.2,78,56,29,29.97,29.85,20,6,23,0.00
2014-8-10,87.8,70.6,59.6,55.8,52.9,47.3,77,57,26,30.03,29.90,16,5,18,0.00
2014-8-11,96.7,74.7,60.5,55.5,50.3,29.4,79,49,10,29.97,29.85,14,4,17,0.00
2014-8-12,87.8,71.8,61.5,55.0,52.1,46.8,73,53,25,30.01,29.89,18,6,20,0.00
2014-8-13,91.9,72.4,60.2,55.1,52.6,47.8,78,54,23,30.01,29.90,17,6,19,0.00
2014-8-14,91.7,73.8,61.1,56.8,51.7,35.8,80,51,15,29.98,29.85,13,4,15,0.00
2014-8-15,96.3,75.3,60.1,56.1,49.0,13.7,79,48,5,30.01,29.90,12,4,14,0.00
2014-8-16,97.0,75.7,60.9,55.2,47.4,21.1,73,44,8,30.05,29.91,14,4,16,0.00
2014-8-17,94.8,73.5,59.1,54.4,50.6,42.4,79,50,18,30.05,29.85,17,4,18,0.00
2014-8-18,87.4,71.2,60.2,56.4,53.8,50.7,79,57,30,29.91,29.75,17,6,19,0.00
2014-8-19,84.1,69.2,60.2,57.1,54.7,52.6,80,62,36,29.90,29.78,19,7,23,0.00
2014-8-20,80.5,69.4,63.1,56.5,54.9,52.6,76,61,40,29.96,29.84,23,7,25,0.00
2014-8-21,92.0,73.9,60.5,57.2,54.1,47.4,81,54,23,29.99,29.87,17,4,19,0.00
2014-8-22,88.2,71.9,62.3,57.4,54.7,50.9,79,58,30,29.95,29.84,18,6,20,0.00
2014-8-23,90.9,73.1,61.2,56.2,52.8,45.6,79,53,22,29.98,29.82,15,4,18,0.00
2014-8-24,92.2,73.9,61.9,54.0,50.0,42.7,73,46,22,29.91,29.76,20,6,23,0.00
2014-8-25,83.0,69.0,61.5,55.1,52.7,50.3,73,58,35,29.96,29.85,20,7,23,0.00
2014-8-26,91.3,73.1,59.4,55.4,51.6,44.2,79,51,24,30.04,29.90,17,4,17,0.00
2014-8-27,97.3,77.4,62.7,56.4,48.9,29.2,75,43,10,30.09,29.96,15,4,17,0.00
2014-8-28,99.3,77.3,61.6,55.4,49.5,34.2,75,44,11,30.08,29.89,14,4,15,0.00
2014-8-29,92.1,73.5,61.5,56.6,53.7,48.9,77,53,24,29.97,29.83,14,4,19,0.00
2014-8-30,98.8,79.3,65.2,55.1,48.5,35.0,66,39,12,29.90,29.80,21,5,25,0.00
2014-8-31,96.9,78.6,64.0,55.3,49.4,40.1,68,41,15,29.93,29.79,14,4,18,0.00
2014-9-1,99.4,79.5,61.6,55.9,47.2,34.7,76,40,11,29.88,29.71,12,2,15,0.00
2014-9-2,88.9,73.2,61.9,56.7,54.2,51.0,76,54,29,29.85,29.73,19,5,20,0.00
2014-9-3,90.4,73.5,57.7,56.3,53.1,49.9,81,53,26,29.84,29.66,19,4,19,0.00
2014-9-4,91.1,72.0,60.7,56.0,53.1,47.6,79,55,24,29.79,29.69,16,4,18,0.00
2014-9-5,89.6,72.1,59.4,55.2,52.7,48.2,80,54,25,29.92,29.78,13,4,16,0.00
2014-9-6,92.3,72.1,59.2,54.3,49.9,28.5,77,50,11,29.99,29.85,15,4,17,0.00
2014-9-7,92.0,71.9,58.0,51.9,47.2,30.3,76,46,12,29.93,29.76,15,4,16,0.00
2014-9-8,84.3,67.9,57.0,52.6,48.9,43.5,80,54,26,29.94,29.84,17,6,23,0.00
2014-9-9,87.9,70.7,56.3,54.9,50.4,41.1,82,54,21,30.04,29.87,13,3,16,0.00
2014-9-10,98.4,75.8,57.2,53.5,43.3,18.8,79,43,6,29.99,29.80,10,1,11,0.00
2014-9-11,100.1,79.2,60.6,54.8,42.3,16.4,68,35,5,29.94,29.78,11,2,13,0.00
2014-9-12,100.4,79.9,60.9,54.1,42.2,15.2,68,34,5,29.92,29.75,10,2,12,0.00
2014-9-13,100.3,79.4,63.6,55.1,47.5,27.2,68,39,8,29.86,29.72,13,2,13,0.00
2014-9-14,96.3,77.4,63.0,54.6,48.7,40.3,69,41,15,29.87,29.76,14,3,15,0.00
2014-9-15,94.1,75.0,62.9,54.1,47.9,35.2,70,42,13,29.93,29.81,18,4,22,0.00
2014-9-16,93.7,74.4,59.2,53.5,48.5,36.1,76,45,14,29.95,29.77,13,3,14,0.00
2014-9-17,89.6,73.2,61.7,61.7,51.9,36.0,76,52,16,29.84,29.73,21,4,21,0.00
2014-9-18,86.1,74.4,68.0,63.6,59.1,51.6,83,61,34,29.90,29.80,17,3,18,0.04
2014-9-19,89.1,74.0,61.4,60.8,56.1,50.8,82,56,32,29.94,29.82,16,4,22,0.00
2014-9-20,88.8,72.9,62.7,59.7,55.7,49.1,81,58,27,29.95,29.84,18,4,21,0.00
2014-9-21,84.8,71.7,63.6,56.5,54.7,51.2,73,57,33,30.01,29.90,20,7,21,0.00
2014-9-22,90.8,72.7,61.4,57.7,53.6,47.8,81,55,24,30.06,29.92,15,4,16,0.00
2014-9-23,90.8,71.7,59.7,60.1,53.4,43.0,78,56,20,30.03,29.90,14,3,16,0.00
2014-9-24,87.3,73.3,65.2,61.2,59.2,56.1,80,63,36,29.98,29.86,13,4,20,0.00
2014-9-25,81.3,68.6,60.4,58.9,55.7,50.6,85,65,37,30.04,29.91,15,3,16,0.25
2014-9-26,83.4,64.8,56.3,59.3,53.2,47.3,85,68,32,30.06,29.90,12,2,14,0.45
2014-9-27,82.3,68.4,58.8,56.4,53.0,48.5,82,61,32,29.97,29.82,13,2,14,0.00
2014-9-28,77.9,67.0,59.5,58.0,54.9,50.2,83,66,40,29.99,29.85,11,2,13,0.00
2014-9-29,81.9,68.1,58.3,57.6,54.6,52.1,84,64,39,30.06,29.94,15,3,16,0.00
2014-9-30,85.5,70.0,59.3,56.3,53.5,49.7,81,59,31,30.00,29.85,10,2,12,0.00
2014-10-1,91.3,72.2,55.3,52.3,36.3,10.2,78,38,6,29.95,29.86,14,1,18,0.00
2014-10-2,91.1,71.5,53.7,47.1,36.3,16.7,67,35,7,30.10,29.95,15,2,17,0.00
2014-10-3,95.9,74.7,55.9,47.5,35.8,15.5,63,32,6,30.14,30.00,10,1,10,0.00
2014-10-4,96.7,77.4,59.2,48.8,37.7,20.6,62,30,7,30.09,29.91,9,1,10,0.00
2014-10-5,97.4,77.8,60.7,50.1,40.0,27.9,59,30,9,30.01,29.85,9,1,10,0.00
2014-10-6,95.9,75.2,59.7,51.6,44.5,28.9,68,39,11,29.98,29.81,9,1,13,0.00
2014-10-7,93.5,74.0,56.7,51.2,45.8,30.8,74,42,11,29.96,29.81,9,2,9,0.00
2014-10-8,96.1,74.4,57.1,52.9,45.1,28.4,78,42,10,29.94,29.80,13,2,13,0.00
2014-10-9,88.9,71.6,59.2,53.8,50.1,44.7,75,50,22,29.98,29.88,13,3,17,0.00
2014-10-10,83.8,70.1,57.3,53.6,50.5,47.0,79,53,28,30.08,29.95,12,3,18,0.00
2014-10-11,88.9,70.7,57.4,53.7,48.8,35.9,80,51,17,30.08,29.94,9,2,11,0.00
2014-10-12,95.8,74.7,59.4,54.3,29.8,-23.6,78,34,1,30.04,29.88,10,1,13,0.00
2014-10-13,92.3,71.0,56.8,53.0,35.6,11.0,69,34,5,30.03,29.89,18,2,19,0.00
2014-10-14,73.7,65.6,59.0,56.5,52.8,48.9,76,64,47,29.98,29.85,22,6,28,0.00
2014-10-15,75.3,66.0,60.0,59.2,54.4,49.1,84,67,43,30.08,29.88,14,2,14,0.10
2014-10-16,79.3,65.1,54.7,52.6,46.3,0.0,77,54,21,30.08,29.95,12,2,13,0.00
2014-10-17,77.0,63.7,52.8,55.1,48.2,43.5,79,59,35,30.02,29.96,14,2,14,0.00
2014-10-18,83.1,68.9,56.5,56.3,53.7,49.3,84,61,35,30.03,29.88,13,2,14,0.00
2014-10-19,84.1,69.6,59.2,57.6,54.4,49.8,80,61,34,29.95,29.85,15,2,15,0.00
2014-10-20,76.0,67.1,55.6,57.8,52.5,0.0,76,61,39,30.09,29.92,18,4,18,0.00
2014-10-21,77.3,63.4,53.5,50.1,45.7,38.9,79,56,27,30.16,30.02,12,2,12,0.00
2014-10-22,81.3,65.8,51.8,53.2,47.5,40.8,79,54,25,30.12,30.02,14,2,15,0.00
2014-10-23,78.1,67.2,59.5,56.5,53.1,50.4,76,62,40,30.10,29.98,11,2,12,0.00
2014-10-24,80.3,64.6,51.7,55.6,51.5,46.9,85,65,34,30.03,29.89,16,2,20,0.00
2014-10-25,74.6,65.1,59.8,59.1,55.0,51.3,85,71,51,30.16,29.92,22,4,23,0.28
2014-10-26,75.8,62.5,50.9,53.3,45.5,32.9,87,58,25,30.21,30.07,15,2,17,0.26
2014-10-27,77.9,61.9,49.0,48.1,44.0,36.1,81,56,26,30.11,30.02,10,2,11,0.00
2014-10-28,79.3,63.3,50.2,49.2,44.7,35.3,81,55,22,30.17,30.07,10,1,10,0.00
2014-10-29,83.1,65.6,52.8,51.0,47.0,38.9,83,56,22,30.18,30.01,10,1,10,0.00
2014-10-30,79.3,64.8,55.9,56.2,50.4,43.1,81,63,29,30.01,29.88,13,2,15,0.00
2014-10-31,63.3,60.5,56.5,57.7,54.8,51.3,87,82,76,29.93,29.73,9,1,13,0.40
2014-11-1,72.3,59.2,49.3,52.2,47.0,38.7,88,67,35,30.07,29.74,14,2,14,0.01
2014-11-2,73.5,58.8,47.9,49.3,43.2,35.9,87,60,27,30.21,30.07,9,1,9,0.00
2014-11-3,72.9,57.9,46.9,47.3,42.2,36.4,80,59,29,30.31,30.21,8,1,8,0.00
2014-11-4,73.6,58.1,45.9,47.8,43.8,38.9,86,63,32,30.41,30.27,11,1,11,0.00
2014-11-5,75.0,61.2,48.7,49.6,46.5,43.6,84,61,36,30.29,30.14,14,2,15,0.00
2014-11-6,78.1,62.7,51.8,52.3,48.9,46.1,85,64,34,30.28,30.18,10,1,11,0.00
2014-11-7,78.8,63.1,50.5,55.0,49.5,45.7,87,64,36,30.28,30.12,7,0,8,0.00
2014-11-8,80.5,64.8,51.8,54.5,48.6,43.5,85,60,29,30.19,30.04,11,1,11,0.00
2014-11-9,80.5,65.0,53.5,52.3,49.1,45.2,80,59,31,30.06,29.83,10,1,11,0.00
2014-11-10,80.8,64.0,52.8,52.9,48.8,36.5,84,62,23,29.91,29.81,13,2,13,0.00
2014-11-11,67.6,60.7,55.8,52.8,49.0,45.3,80,66,48,30.02,29.88,15,4,16,0.00
2014-11-12,70.8,60.4,51.2,52.6,46.4,42.9,78,61,39,30.07,29.98,10,1,11,0.00
2014-11-13,64.2,59.6,56.3,56.8,54.5,51.7,88,83,75,30.10,29.99,5,0,7,0.19
2014-11-14,71.5,59.7,51.3,53.3,50.5,47.6,89,73,48,30.15,30.07,10,2,14,0.00
2014-11-15,72.3,57.6,47.9,52.3,48.2,43.4,88,73,43,30.24,30.11,9,1,10,0.00
2014-11-16,67.3,56.5,47.7,48.3,31.5,11.7,77,43,13,30.33,30.23,14,1,16,0.00
2014-11-17,69.3,53.2,40.1,40.3,30.3,15.5,80,47,14,30.33,30.18,14,1,20,0.00
2014-11-18,66.6,53.4,42.5,41.5,33.6,26.1,71,49,25,30.25,30.13,13,1,15,0.00
2014-11-19,55.9,53.4,50.7,51.0,46.6,38.1,89,78,60,30.21,30.08,11,1,11,0.09
2014-11-20,56.6,54.5,52.7,53.1,50.8,48.5,91,87,82,30.19,30.04,16,1,17,0.33
2014-11-21,60.7,54.5,47.4,52.5,49.6,44.2,93,84,67,30.19,30.09,7,0,8,0.00
2014-11-22,71.1,58.6,53.2,60.4,51.4,43.7,92,78,46,30.30,30.08,10,2,16,0.78
2014-11-23,69.5,56.3,46.6,46.0,41.7,36.0,83,61,33,30.38,30.29,13,2,16,0.00
2014-11-24,67.9,52.6,42.0,46.1,41.4,37.5,88,69,36,30.47,30.37,8,0,8,0.00
2014-11-25,68.0,53.6,43.2,46.8,42.4,38.8,88,68,40,30.53,30.39,13,2,13,0.00
2014-11-26,70.2,54.5,42.3,48.1,43.7,38.2,89,70,38,30.39,30.26,12,1,13,0.00
2014-11-27,70.8,54.9,45.7,50.4,45.8,41.5,88,73,44,30.27,30.10,9,0,9,0.00
2014-11-28,69.5,54.8,40.1,54.0,46.8,36.2,91,76,49,30.11,29.90,14,2,14,0.18
2014-11-29,60.4,57.2,55.0,55.9,53.5,50.5,90,88,83,29.93,29.81,8,0,9,0.30
2014-11-30,57.1,55.1,53.1,52.8,51.5,50.3,91,88,81,30.10,29.81,9,1,14,0.60
2014-12-1,66.3,58.1,52.8,54.7,51.9,49.8,92,80,61,30.20,30.01,13,2,15,0.00
2014-12-2,58.2,56.1,54.5,54.2,52.7,50.0,91,89,80,30.01,29.77,24,2,24,1.25
2014-12-3,64.0,59.2,55.2,58.2,55.7,52.5,91,88,79,29.94,29.77,19,3,19,1.57
2014-12-4,67.8,60.4,54.5,58.2,55.2,51.3,91,84,67,30.07,29.93,9,1,10,0.26
2014-12-5,65.0,58.8,53.7,58.3,54.9,50.7,92,87,77,30.14,30.03,10,1,10,0.01
2014-12-6,69.9,60.5,55.5,58.4,55.4,52.0,91,84,62,30.29,30.13,7,1,9,0.16
2014-12-7,64.1,57.6,52.4,56.0,53.3,49.3,91,86,72,30.27,30.18,10,1,12,0.00
2014-12-8,63.5,57.5,54.1,55.8,53.5,51.0,92,87,74,30.25,30.18,6,0,7,0.00
2014-12-9,61.6,58.3,54.8,56.3,54.7,51.9,92,88,81,30.26,30.12,8,1,9,0.00
2014-12-10,58.4,56.0,54.1,55.2,52.6,51.1,92,88,83,30.13,29.75,10,2,10,0.00
2014-12-11,59.9,56.0,52.2,56.2,52.2,49.4,92,87,74,29.78,29.56,20,2,22,3.06
2014-12-12,55.3,51.5,46.8,51.1,48.4,44.2,93,89,83,30.13,29.70,3,0,5,0.44
2014-12-13,60.4,49.6,42.2,51.3,44.9,39.9,93,83,66,30.28,30.13,9,1,10,0.01
2014-12-14,54.8,50.2,46.7,47.1,45.8,43.5,92,85,74,30.23,30.07,14,2,16,0.05
2014-12-15,52.2,50.1,48.2,49.1,47.2,45.2,92,90,87,30.07,29.90,15,2,16,1.25
2014-12-16,61.0,52.9,47.5,52.7,49.0,44.1,93,87,69,30.03,29.87,19,1,20,0.49
2014-12-17,63.0,52.4,46.1,53.1,48.1,43.3,94,86,64,30.15,29.99,12,1,12,0.22
2014-12-18,56.8,53.3,51.0,51.4,49.4,47.8,91,87,78,30.26,30.14,9,1,9,0.08
2014-12-19,55.1,53.3,51.3,52.6,50.8,48.2,92,91,90,30.23,30.14,10,0,11,0.83
2014-12-20,58.2,55.3,52.9,54.6,52.8,50.7,93,91,85,30.29,30.18,5,0,5,0.02
2014-12-21,71.8,61.0,54.5,59.3,55.6,51.4,92,83,62,30.33,30.26,15,2,15,0.03
2014-12-22,67.8,58.5,52.4,57.1,54.0,49.2,92,85,68,30.35,30.21,7,1,8,0.03
2014-12-23,69.0,56.0,48.3,54.4,50.2,45.7,93,82,55,30.28,30.18,9,1,9,0.00
2014-12-24,60.2,52.5,48.2,53.8,46.1,36.6,93,80,60,30.18,29.95,21,3,24,0.01
2014-12-25,63.6,52.1,44.8,37.5,32.2,25.5,71,49,25,30.21,30.12,14,4,22,0.00
2014-12-26,64.8,52.4,44.1,36.8,29.9,24.1,66,44,23,30.32,30.16,15,3,17,0.00
2014-12-27,58.4,46.4,35.9,39.9,35.6,31.1,85,67,41,30.44,30.32,12,1,16,0.00
2014-12-28,61.4,47.6,38.3,44.7,37.9,33.9,86,71,43,30.44,30.28,7,0,7,0.00
2014-12-29,60.7,49.1,41.1,46.8,42.0,36.5,89,77,52,30.29,30.15,10,1,12,0.00
2014-12-30,58.1,47.2,37.9,39.2,23.3,12.1,92,44,21,30.35,30.15,38,7,40,0.00
2014-12-31,63.9,49.2,39.4,30.8,13.9,-8.4,66,28,7,30.33,30.11,18,2,20,0.00
2015-1-1,55.7,42.5,35.2,35.0,30.5,19.7,83,64,37,30.25,30.13,16,3,16,0.00
2015-1-2,56.9,41.6,31.2,37.4,32.3,27.1,87,71,43,30.30,30.18,9,1,9,0.00